Time;durP1;ratioP1;P1;durP2;ratioP2;P2;SDS_P1;SDS_P2;PMS_P1;PMS_P2;Temp;Humidity;BMP_temperature;BMP_pressure;BME280_temperature;BME280_humidity;BME280_pressure;Samples;Min_cycle;Max_cycle;Signal;HPM_P1;HPM_P2
2023/08/08 00:00:59;;;;;;;1.50;1.00;;;15.00;98.20;;;;;;5010994;28;20460;-83
2023/08/08 00:03:27;;;;;;;1.50;1.00;;;15.00;98.20;;;;;;5017559;28;20485;-82
2023/08/08 00:05:55;;;;;;;1.57;1.00;;;14.90;98.20;;;;;;5023933;28;20455;-84
2023/08/08 00:08:21;;;;;;;1.50;1.00;;;14.90;98.20;;;;;;5023459;28;20821;-84
2023/08/08 00:10:48;;;;;;;1.50;1.00;;;14.80;98.20;;;;;;5025050;28;20497;-81
2023/08/08 00:13:15;;;;;;;1.57;1.00;;;14.80;98.20;;;;;;5032255;28;20492;-80
2023/08/08 00:15:42;;;;;;;1.50;1.00;;;14.80;98.20;;;;;;5021958;28;20456;-83
2023/08/08 00:18:09;;;;;;;1.50;1.10;;;14.70;98.20;;;;;;5018507;28;20538;-83
2023/08/08 00:20:36;;;;;;;1.50;0.93;;;14.70;98.20;;;;;;5018055;28;20464;-80
2023/08/08 00:23:04;;;;;;;1.50;0.97;;;14.70;98.20;;;;;;5007825;28;20816;-83
2023/08/08 00:25:31;;;;;;;1.50;1.00;;;14.60;98.20;;;;;;5017352;28;20459;-81
2023/08/08 00:27:57;;;;;;;1.50;1.00;;;14.60;98.20;;;;;;5007922;28;20842;-83
2023/08/08 00:30:24;;;;;;;1.53;1.00;;;14.60;98.20;;;;;;5025470;28;20476;-82
2023/08/08 00:32:51;;;;;;;1.50;1.00;;;14.60;98.20;;;;;;5002177;28;20486;-82
2023/08/08 00:35:18;;;;;;;1.50;1.00;;;14.60;98.20;;;;;;5023877;28;20946;-83
2023/08/08 00:37:45;;;;;;;1.50;1.00;;;14.50;98.20;;;;;;5004478;28;20518;-82
2023/08/08 00:40:13;;;;;;;1.50;1.00;;;14.50;98.20;;;;;;5022077;28;20462;-82
2023/08/08 00:42:40;;;;;;;1.50;1.00;;;14.50;98.20;;;;;;5015992;28;20976;-81
2023/08/08 00:45:08;;;;;;;1.57;1.00;;;14.50;98.20;;;;;;5024488;28;20482;-83
2023/08/08 00:47:35;;;;;;;1.50;1.00;;;14.50;98.20;;;;;;5013315;28;20479;-83
2023/08/08 00:50:03;;;;;;;1.60;1.10;;;14.40;98.20;;;;;;5023070;28;20460;-83
2023/08/08 00:52:30;;;;;;;1.53;1.00;;;14.40;98.20;;;;;;5003492;28;20484;-82
2023/08/08 00:54:57;;;;;;;1.57;1.00;;;14.40;98.20;;;;;;5023885;28;20483;-82
2023/08/08 00:57:26;;;;;;;1.50;1.00;;;14.40;98.20;;;;;;5012892;28;20483;-83
2023/08/08 00:59:53;;;;;;;2.37;1.97;;;14.40;98.20;;;;;;5021484;28;20460;-82
2023/08/08 01:02:20;;;;;;;1.57;1.00;;;14.40;98.20;;;;;;5022479;28;20483;-83
2023/08/08 01:04:47;;;;;;;1.50;1.00;;;14.30;98.20;;;;;;5020610;28;20467;-81
2023/08/08 01:07:27;;;;;;;1.50;1.00;;;14.30;98.20;;;;;;5006178;28;20476;-82
2023/08/08 01:10:06;;;;;;;1.50;1.00;;;14.30;98.20;;;;;;5017228;28;20491;-83
2023/08/08 01:12:40;;;;;;;1.60;1.10;;;14.30;98.20;;;;;;5004352;28;20480;-82
2023/08/08 01:15:08;;;;;;;1.50;1.00;;;14.30;98.20;;;;;;5021741;28;20997;-81
2023/08/08 01:17:37;;;;;;;1.50;1.00;;;14.30;98.20;;;;;;5012358;28;20475;-81
2023/08/08 01:20:05;;;;;;;1.50;1.00;;;14.40;98.20;;;;;;5023673;28;20482;-79
2023/08/08 01:22:38;;;;;;;1.50;1.00;;;14.40;98.20;;;;;;5015838;28;20483;-80
2023/08/08 01:25:08;;;;;;;1.50;1.00;;;14.40;98.20;;;;;;5021896;28;20475;-82
2023/08/08 01:27:35;;;;;;;1.50;1.00;;;14.40;98.20;;;;;;5008787;28;20940;-83
2023/08/08 01:30:03;;;;;;;1.50;1.00;;;14.40;98.20;;;;;;5033887;28;20455;-82
2023/08/08 01:32:30;;;;;;;1.50;1.00;;;14.50;98.20;;;;;;5019679;28;20847;-81
2023/08/08 01:34:57;;;;;;;1.50;1.00;;;14.40;98.20;;;;;;5026671;28;20847;-82
2023/08/08 01:37:29;;;;;;;1.50;1.00;;;14.40;98.20;;;;;;5012553;28;21018;-80
2023/08/08 01:40:00;;;;;;;1.50;1.00;;;14.40;98.20;;;;;;5017596;28;20523;-82
2023/08/08 01:42:29;;;;;;;1.57;1.13;;;14.40;98.20;;;;;;5022896;28;20471;-82
2023/08/08 01:44:57;;;;;;;1.50;1.00;;;14.40;98.20;;;;;;5025192;28;20972;-83
2023/08/08 01:47:24;;;;;;;1.57;1.10;;;14.30;98.20;;;;;;5023825;28;21276;-83
2023/08/08 01:49:51;;;;;;;1.50;1.00;;;14.30;98.20;;;;;;5035282;28;20543;-80
2023/08/08 01:52:18;;;;;;;1.50;1.07;;;14.30;98.20;;;;;;5018231;28;20483;-84
2023/08/08 01:54:44;;;;;;;1.50;1.00;;;14.20;98.20;;;;;;5024471;28;20977;-82
2023/08/08 01:57:11;;;;;;;1.50;1.00;;;14.20;98.20;;;;;;5015227;28;20478;-82
2023/08/08 01:59:39;;;;;;;1.53;1.00;;;14.20;98.20;;;;;;5034133;28;20523;-84
2023/08/08 02:02:07;;;;;;;1.50;1.00;;;14.20;98.20;;;;;;5020711;28;20478;-80
2023/08/08 02:04:34;;;;;;;1.50;1.00;;;14.10;98.20;;;;;;5029824;28;20474;-83
2023/08/08 02:07:01;;;;;;;1.50;1.00;;;14.10;98.20;;;;;;5018747;28;20485;-82
2023/08/08 02:09:27;;;;;;;1.50;1.00;;;14.10;98.20;;;;;;5026794;28;20542;-84
2023/08/08 02:11:54;;;;;;;1.53;1.00;;;14.10;98.20;;;;;;5017814;28;21195;-83
2023/08/08 02:14:21;;;;;;;1.50;1.10;;;14.00;98.20;;;;;;5031183;28;20586;-82
2023/08/08 02:16:49;;;;;;;1.57;1.20;;;14.00;98.20;;;;;;5017031;28;20556;-83
2023/08/08 02:19:16;;;;;;;1.53;1.10;;;14.00;98.20;;;;;;5031637;28;20467;-80
2023/08/08 02:21:43;;;;;;;1.50;1.10;;;14.00;98.20;;;;;;5023149;28;20506;-81
2023/08/08 02:24:10;;;;;;;1.60;1.17;;;14.00;98.20;;;;;;5032924;28;20554;-82
2023/08/08 02:26:36;;;;;;;1.53;1.00;;;14.00;98.20;;;;;;5023851;28;20489;-84
2023/08/08 02:29:03;;;;;;;1.50;1.00;;;14.00;98.20;;;;;;5035040;28;20852;-85
2023/08/08 02:31:30;;;;;;;1.50;1.00;;;14.00;98.20;;;;;;5024593;28;20479;-83
2023/08/08 02:33:58;;;;;;;1.50;1.00;;;14.00;98.20;;;;;;5033403;28;21065;-83
2023/08/08 02:36:25;;;;;;;1.53;1.00;;;14.00;98.20;;;;;;5023380;28;21102;-81
2023/08/08 02:38:53;;;;;;;1.53;1.00;;;14.00;98.20;;;;;;5033961;28;20530;-84
2023/08/08 02:41:20;;;;;;;1.50;1.00;;;14.00;98.20;;;;;;5029540;28;20509;-82
2023/08/08 02:43:46;;;;;;;1.53;1.07;;;14.00;98.20;;;;;;5032061;28;20478;-85
2023/08/08 02:46:13;;;;;;;1.50;1.00;;;14.00;98.20;;;;;;5022796;28;20482;-82
2023/08/08 02:48:40;;;;;;;1.53;1.00;;;13.90;98.20;;;;;;5033153;28;20961;-82
2023/08/08 02:51:08;;;;;;;1.50;1.10;;;13.90;98.20;;;;;;5015374;28;21360;-82
2023/08/08 02:53:35;;;;;;;1.53;1.00;;;13.90;98.20;;;;;;5027510;28;20479;-81
2023/08/08 02:56:02;;;;;;;1.50;1.00;;;13.90;98.20;;;;;;5019578;28;21137;-83
2023/08/08 02:58:29;;;;;;;1.50;1.00;;;13.90;98.20;;;;;;5030276;28;20564;-84
2023/08/08 03:00:55;;;;;;;1.50;1.00;;;13.80;98.20;;;;;;5017064;28;20483;-81
2023/08/08 03:03:23;;;;;;;1.50;1.00;;;13.80;98.20;;;;;;5030399;28;20540;-83
2023/08/08 03:05:50;;;;;;;1.50;1.00;;;13.80;98.20;;;;;;5020879;28;20459;-81
2023/08/08 03:08:18;;;;;;;1.50;1.00;;;13.80;98.20;;;;;;5030858;28;20498;-82
2023/08/08 03:10:45;;;;;;;1.50;1.00;;;13.80;98.20;;;;;;5030391;28;20455;-82
2023/08/08 03:13:12;;;;;;;1.50;1.00;;;13.70;98.20;;;;;;5004743;28;20958;-81
2023/08/08 03:15:39;;;;;;;1.50;1.00;;;13.70;98.20;;;;;;5033896;28;20475;-83
2023/08/08 03:18:06;;;;;;;1.50;1.03;;;13.70;98.20;;;;;;5012481;28;20770;-81
2023/08/08 03:20:33;;;;;;;1.50;1.00;;;13.70;98.20;;;;;;5027544;28;20463;-83
2023/08/08 03:23:00;;;;;;;1.50;1.00;;;13.70;98.20;;;;;;5020232;28;20479;-80
2023/08/08 03:25:28;;;;;;;1.57;1.03;;;13.70;98.20;;;;;;5030737;28;20462;-79
2023/08/08 03:27:55;;;;;;;1.50;1.00;;;13.70;98.20;;;;;;5017831;28;20475;-82
2023/08/08 03:30:22;;;;;;;1.50;1.00;;;13.70;98.20;;;;;;5023054;28;20460;-84
2023/08/08 03:32:49;;;;;;;1.50;1.00;;;13.70;98.20;;;;;;5018839;28;20483;-83
2023/08/08 03:35:16;;;;;;;1.50;1.00;;;13.70;98.20;;;;;;5022514;28;20488;-81
2023/08/08 03:37:43;;;;;;;1.57;1.00;;;13.70;98.20;;;;;;5024181;28;20510;-83
2023/08/08 03:40:10;;;;;;;1.53;1.00;;;13.70;98.20;;;;;;5021163;28;20460;-80
2023/08/08 03:42:38;;;;;;;1.50;1.00;;;13.70;98.20;;;;;;5019349;28;20481;-83
2023/08/08 03:45:06;;;;;;;1.53;1.00;;;13.70;98.20;;;;;;5027248;28;20972;-85
2023/08/08 03:47:33;;;;;;;1.60;1.10;;;13.70;98.20;;;;;;5018664;28;20775;-82
2023/08/08 03:50:00;;;;;;;1.50;1.00;;;13.70;98.20;;;;;;5022899;28;20472;-83
2023/08/08 03:52:26;;;;;;;1.50;1.00;;;13.70;98.20;;;;;;5012038;28;20491;-83
2023/08/08 03:54:53;;;;;;;1.50;1.00;;;13.70;98.20;;;;;;5018423;28;20547;-82
2023/08/08 03:57:20;;;;;;;1.53;1.00;;;13.70;98.20;;;;;;5011823;28;20483;-81
2023/08/08 03:59:48;;;;;;;1.50;1.00;;;13.70;98.20;;;;;;5020657;28;20486;-83
2023/08/08 04:02:15;;;;;;;1.53;1.00;;;13.70;98.20;;;;;;5014746;28;21306;-82
2023/08/08 04:04:42;;;;;;;1.50;1.10;;;13.70;98.20;;;;;;5019508;28;20482;-80
2023/08/08 04:07:09;;;;;;;1.50;1.00;;;13.70;98.20;;;;;;5017503;28;20829;-81
2023/08/08 04:09:35;;;;;;;1.50;1.00;;;13.70;98.20;;;;;;5020004;28;20448;-83
2023/08/08 04:12:02;;;;;;;1.53;1.00;;;13.70;98.20;;;;;;5019877;28;20551;-84
2023/08/08 04:14:29;;;;;;;1.50;1.00;;;13.80;98.20;;;;;;5022035;28;20575;-82
2023/08/08 04:16:57;;;;;;;1.53;1.00;;;13.80;98.20;;;;;;5016831;28;20490;-81
2023/08/08 04:19:24;;;;;;;1.53;1.00;;;13.80;98.20;;;;;;5023321;28;20459;-83
2023/08/08 04:21:51;;;;;;;1.50;1.00;;;13.80;98.20;;;;;;5054457;23;21069;-79
2023/08/08 04:24:18;;;;;;;1.50;1.00;;;13.90;98.20;;;;;;5025017;28;20470;-80
2023/08/08 04:26:45;;;;;;;1.50;1.10;;;13.90;98.20;;;;;;5011677;28;20476;-78
2023/08/08 04:29:11;;;;;;;1.60;1.10;;;13.90;98.20;;;;;;5029559;28;20466;-80
2023/08/08 04:31:38;;;;;;;1.50;1.00;;;13.90;98.20;;;;;;5021602;28;20487;-80
2023/08/08 04:34:06;;;;;;;1.53;1.03;;;13.90;98.20;;;;;;5030685;28;20471;-80
2023/08/08 04:36:33;;;;;;;1.50;1.00;;;13.90;98.20;;;;;;5021781;28;20546;-78
2023/08/08 04:39:00;;;;;;;1.50;1.00;;;13.90;98.20;;;;;;5032392;28;20675;-80
2023/08/08 04:41:27;;;;;;;1.50;1.00;;;13.90;98.20;;;;;;5019942;28;20513;-78
2023/08/08 04:43:54;;;;;;;1.53;1.03;;;13.90;98.20;;;;;;5028792;28;20468;-79
2023/08/08 04:46:20;;;;;;;1.50;1.00;;;13.90;98.20;;;;;;5018724;28;20530;-80
2023/08/08 04:48:47;;;;;;;1.50;1.07;;;14.00;98.20;;;;;;5030488;28;20470;-77
2023/08/08 04:51:15;;;;;;;1.50;1.00;;;14.00;98.20;;;;;;5018934;28;20566;-79
2023/08/08 04:53:42;;;;;;;1.50;1.00;;;14.00;98.20;;;;;;5030781;28;20465;-79
2023/08/08 04:56:09;;;;;;;1.53;1.00;;;14.10;98.20;;;;;;5020741;28;20487;-81
2023/08/08 04:58:36;;;;;;;1.50;1.00;;;14.10;98.20;;;;;;5029917;28;20474;-79
2023/08/08 05:01:03;;;;;;;1.50;1.00;;;14.10;98.20;;;;;;5021634;28;20487;-80
2023/08/08 05:03:30;;;;;;;1.53;1.00;;;14.10;98.20;;;;;;5026705;28;20478;-79
2023/08/08 05:05:58;;;;;;;1.50;1.00;;;14.20;98.20;;;;;;5021123;28;20486;-80
2023/08/08 05:08:27;;;;;;;1.50;1.00;;;14.20;98.20;;;;;;5025806;28;20463;-81
2023/08/08 05:10:54;;;;;;;1.57;1.10;;;14.30;98.20;;;;;;5019324;28;20580;-79
2023/08/08 05:13:20;;;;;;;1.53;0.90;;;14.30;98.20;;;;;;5028639;28;20473;-81
2023/08/08 05:15:47;;;;;;;1.50;1.00;;;14.40;98.20;;;;;;5026444;28;20605;-80
2023/08/08 05:18:14;;;;;;;1.53;1.00;;;14.40;98.20;;;;;;5029351;28;20478;-82
2023/08/08 05:20:41;;;;;;;1.50;1.00;;;14.50;98.20;;;;;;5032334;28;20487;-79
2023/08/08 05:23:08;;;;;;;1.57;1.10;;;14.50;98.20;;;;;;5023990;28;20482;-80
2023/08/08 05:25:36;;;;;;;1.53;1.10;;;14.50;98.20;;;;;;5030490;28;20475;-79
2023/08/08 05:28:06;;;;;;;1.50;1.00;;;14.60;98.20;;;;;;5014248;28;20485;-81
2023/08/08 05:30:33;;;;;;;1.53;1.00;;;14.60;98.20;;;;;;5029743;28;20487;-81
2023/08/08 05:33:00;;;;;;;1.60;1.10;;;14.60;98.20;;;;;;5020655;28;20487;-81
2023/08/08 05:35:27;;;;;;;1.50;1.00;;;14.60;98.20;;;;;;5031303;28;20466;-80
2023/08/08 05:37:53;;;;;;;1.50;1.00;;;14.70;98.20;;;;;;5019619;28;20474;-81
2023/08/08 05:40:20;;;;;;;1.53;1.00;;;14.70;98.20;;;;;;5033457;28;20787;-81
2023/08/08 05:42:48;;;;;;;1.53;1.00;;;14.70;98.20;;;;;;5020461;28;20475;-81
2023/08/08 05:45:15;;;;;;;1.50;1.03;;;14.80;98.20;;;;;;5030227;28;20858;-82
2023/08/08 05:47:42;;;;;;;1.57;1.00;;;14.80;98.20;;;;;;5016540;28;20480;-82
2023/08/08 05:50:09;;;;;;;1.53;1.10;;;14.90;98.20;;;;;;5031210;28;21021;-81
2023/08/08 05:52:36;;;;;;;1.53;1.00;;;15.00;98.20;;;;;;5018650;28;20482;-79
2023/08/08 05:55:03;;;;;;;1.50;0.90;;;15.10;98.20;;;;;;5029712;28;20970;-81
2023/08/08 05:57:30;;;;;;;1.53;0.90;;;15.20;98.20;;;;;;5015414;28;20490;-79
2023/08/08 05:59:58;;;;;;;1.53;1.00;;;15.20;98.20;;;;;;5028874;28;20510;-80
2023/08/08 06:02:25;;;;;;;1.50;0.90;;;15.30;98.20;;;;;;5018958;28;20487;-80
2023/08/08 06:04:52;;;;;;;1.57;1.00;;;15.30;98.20;;;;;;5029057;28;20513;-81
2023/08/08 06:07:19;;;;;;;1.53;1.00;;;15.40;98.20;;;;;;5021037;28;20543;-80
2023/08/08 06:09:46;;;;;;;1.57;1.00;;;15.40;98.20;;;;;;5026801;28;20472;-78
2023/08/08 06:12:13;;;;;;;1.53;1.00;;;15.50;98.20;;;;;;5017113;28;20482;-81
2023/08/08 06:14:40;;;;;;;1.50;1.00;;;15.60;98.20;;;;;;5032106;28;20475;-81
2023/08/08 06:17:08;;;;;;;1.53;1.00;;;15.60;98.20;;;;;;5022712;28;20490;-81
2023/08/08 06:19:35;;;;;;;1.50;0.90;;;15.70;98.20;;;;;;5033441;28;20467;-81
2023/08/08 06:22:04;;;;;;;1.50;1.00;;;15.70;98.20;;;;;;5024292;28;20638;-80
2023/08/08 06:24:31;;;;;;;1.50;1.00;;;15.80;98.20;;;;;;5034770;28;20554;-79
2023/08/08 06:26:59;;;;;;;1.53;1.00;;;15.80;98.20;;;;;;5024094;28;20754;-80
2023/08/08 06:29:27;;;;;;;1.53;1.00;;;15.90;98.20;;;;;;5029405;28;20465;-77
2023/08/08 06:31:54;;;;;;;1.53;1.00;;;15.90;98.20;;;;;;5020872;28;20518;-79
2023/08/08 06:34:22;;;;;;;1.50;0.97;;;15.90;98.20;;;;;;5030872;28;20473;-79
2023/08/08 06:36:49;;;;;;;1.53;1.00;;;16.00;98.20;;;;;;5021953;28;20479;-79
2023/08/08 06:39:19;;;;;;;1.60;1.10;;;16.00;98.20;;;;;;5031779;28;20463;-81
2023/08/08 06:41:45;;;;;;;1.50;1.00;;;16.10;98.20;;;;;;5023972;28;20534;-81
2023/08/08 06:44:16;;;;;;;1.50;0.90;;;16.10;98.20;;;;;;5029023;28;20467;-80
2023/08/08 06:46:43;;;;;;;1.57;1.00;;;16.10;98.20;;;;;;5024243;28;20487;-81
2023/08/08 06:49:10;;;;;;;1.53;0.90;;;16.20;98.20;;;;;;5033062;28;20566;-81
2023/08/08 06:51:38;;;;;;;1.53;1.00;;;16.30;98.20;;;;;;5022756;28;20498;-78
2023/08/08 06:54:05;;;;;;;1.60;1.00;;;16.30;98.20;;;;;;5030406;28;20470;-79
2023/08/08 06:56:31;;;;;;;1.57;1.00;;;16.40;98.20;;;;;;5019835;28;20495;-79
2023/08/08 06:58:58;;;;;;;1.57;0.90;;;16.40;98.20;;;;;;5030478;28;20474;-80
2023/08/08 07:01:25;;;;;;;1.50;0.90;;;16.60;98.20;;;;;;5021053;28;20890;-79
2023/08/08 07:03:52;;;;;;;1.53;1.00;;;16.70;98.20;;;;;;5030750;28;20761;-80
2023/08/08 07:06:19;;;;;;;1.57;0.90;;;16.80;98.20;;;;;;5021276;28;20482;-79
2023/08/08 07:08:47;;;;;;;1.53;0.90;;;16.80;98.20;;;;;;5030216;28;20562;-79
2023/08/08 07:11:14;;;;;;;1.60;1.00;;;16.90;98.20;;;;;;5020808;28;20643;-79
2023/08/08 07:13:41;;;;;;;1.53;0.90;;;17.00;98.20;;;;;;5028932;28;20459;-79
2023/08/08 07:16:07;;;;;;;1.60;1.20;;;17.00;98.20;;;;;;5016171;28;20498;-79
2023/08/08 07:18:35;;;;;;;1.50;0.90;;;17.00;98.20;;;;;;5026149;28;20542;-77
2023/08/08 07:21:02;;;;;;;1.60;1.00;;;17.00;98.20;;;;;;5020768;28;20483;-78
2023/08/08 07:23:29;;;;;;;1.50;1.00;;;17.10;98.20;;;;;;5028221;28;20455;-78
2023/08/08 07:26:03;;;;;;;1.57;0.90;;;17.10;98.20;;;;;;5019844;28;20815;-79
2023/08/08 07:28:30;;;;;;;1.57;1.00;;;17.10;98.20;;;;;;5028624;28;20475;-79
2023/08/08 07:30:56;;;;;;;1.53;1.00;;;17.10;98.20;;;;;;5020522;28;20479;-79
2023/08/08 07:33:23;;;;;;;1.50;1.00;;;17.20;98.20;;;;;;5029778;28;20463;-80
2023/08/08 07:35:50;;;;;;;1.53;0.93;;;17.30;98.20;;;;;;5019865;28;20471;-78
2023/08/08 07:38:17;;;;;;;1.50;0.90;;;17.60;98.20;;;;;;5029579;28;20478;-82
2023/08/08 07:40:47;;;;;;;1.53;0.90;;;17.70;98.20;;;;;;5030764;28;20559;-79
2023/08/08 07:43:16;;;;;;;1.53;0.90;;;17.80;98.20;;;;;;5003954;28;20844;-80
2023/08/08 07:45:43;;;;;;;1.50;0.90;;;18.00;98.20;;;;;;5028496;28;20851;-79
2023/08/08 07:48:10;;;;;;;1.60;1.00;;;18.10;98.20;;;;;;5019798;28;20487;-79
2023/08/08 07:50:37;;;;;;;1.50;0.90;;;18.10;98.20;;;;;;5028704;28;21002;-79
2023/08/08 07:53:04;;;;;;;1.50;0.90;;;18.20;98.20;;;;;;5019660;28;20479;-80
2023/08/08 07:55:31;;;;;;;1.60;0.90;;;18.40;98.20;;;;;;5030498;28;20626;-78
2023/08/08 07:57:57;;;;;;;1.57;0.90;;;18.50;98.20;;;;;;5020704;28;20555;-79
2023/08/08 08:00:27;;;;;;;1.50;0.90;;;18.70;98.20;;;;;;5027164;28;20862;-80
2023/08/08 08:02:53;;;;;;;1.57;0.90;;;18.90;98.20;;;;;;5018883;28;20863;-79
2023/08/08 08:05:20;;;;;;;1.50;0.90;;;19.00;98.20;;;;;;5029066;28;20491;-79
2023/08/08 08:07:47;;;;;;;1.53;1.00;;;19.10;98.20;;;;;;5013869;28;20483;-78
2023/08/08 08:10:14;;;;;;;1.53;0.90;;;19.30;98.20;;;;;;5029701;28;20501;-78
2023/08/08 08:12:42;;;;;;;1.53;0.90;;;19.40;98.20;;;;;;5019057;28;20915;-80
2023/08/08 08:15:11;;;;;;;1.70;1.30;;;19.50;98.20;;;;;;5032146;28;20519;-81
2023/08/08 08:17:39;;;;;;;1.50;0.90;;;19.50;98.20;;;;;;5020401;28;20493;-81
2023/08/08 08:20:10;;;;;;;1.50;0.90;;;19.50;98.20;;;;;;5031300;28;20479;-79
2023/08/08 08:22:37;;;;;;;1.50;0.90;;;19.40;98.20;;;;;;5018279;28;20600;-79
2023/08/08 08:25:05;;;;;;;1.53;0.90;;;19.30;98.20;;;;;;5030406;28;20467;-80
2023/08/08 08:27:32;;;;;;;1.50;0.90;;;19.20;98.20;;;;;;5026678;28;21005;-80
2023/08/08 08:29:58;;;;;;;1.50;0.90;;;19.20;98.20;;;;;;5029740;28;20855;-80
2023/08/08 08:32:25;;;;;;;1.50;0.90;;;19.20;98.20;;;;;;5018841;28;20990;-81
2023/08/08 08:34:53;;;;;;;1.50;0.90;;;19.20;98.20;;;;;;5031509;28;20550;-79
2023/08/08 08:37:20;;;;;;;1.50;0.90;;;19.10;98.20;;;;;;5022020;28;20860;-81
2023/08/08 08:39:47;;;;;;;1.50;0.90;;;19.00;98.20;;;;;;5031190;28;20470;-80
2023/08/08 08:42:15;;;;;;;1.50;0.90;;;18.90;98.20;;;;;;5018979;28;20502;-81
2023/08/08 08:44:44;;;;;;;1.50;0.90;;;18.80;98.20;;;;;;5029044;28;20467;-81
2023/08/08 08:47:13;;;;;;;1.50;1.00;;;18.80;98.20;;;;;;5015962;28;20484;-81
2023/08/08 08:49:42;;;;;;;1.50;0.90;;;18.70;98.20;;;;;;5030802;28;20467;-80
2023/08/08 08:52:11;;;;;;;1.50;0.90;;;18.70;98.20;;;;;;5015371;28;20541;-81
2023/08/08 08:54:38;;;;;;;1.50;0.90;;;18.70;98.20;;;;;;5029862;28;20554;-80
2023/08/08 08:57:05;;;;;;;1.50;0.90;;;18.70;98.20;;;;;;5019257;28;20489;-79
2023/08/08 08:59:32;;;;;;;1.50;0.90;;;18.50;98.20;;;;;;5030368;28;20474;-79
2023/08/08 09:01:59;;;;;;;1.50;0.90;;;18.30;98.20;;;;;;5017477;28;20479;-79
2023/08/08 09:04:29;;;;;;;1.50;0.90;;;18.20;98.20;;;;;;5031976;28;20510;-83
2023/08/08 09:10:20;;;;;;;1.50;0.90;;;18.00;98.20;;;;;;5020775;28;20543;-87
2023/08/08 09:12:48;;;;;;;1.50;0.90;;;17.80;98.20;;;;;;5020762;28;20548;-84
2023/08/08 09:15:17;;;;;;;1.50;0.90;;;17.60;98.20;;;;;;5036996;28;20812;-84
2023/08/08 09:17:45;;;;;;;1.50;0.90;;;17.60;98.20;;;;;;5025540;28;20871;-83
2023/08/08 09:20:20;;;;;;;1.53;0.90;;;17.50;98.20;;;;;;5038237;28;21054;-83
2023/08/08 09:22:54;;;;;;;1.50;0.90;;;17.50;98.20;;;;;;4989885;28;20504;-83
2023/08/08 09:25:24;;;;;;;1.50;1.00;;;17.50;98.20;;;;;;5018681;28;20471;-84
2023/08/08 09:27:54;;;;;;;1.50;0.90;;;17.60;98.20;;;;;;5023922;28;20479;-83
2023/08/08 09:30:25;;;;;;;1.50;0.93;;;17.70;98.20;;;;;;5036260;28;21006;-84
2023/08/08 09:33:36;;;;;;;1.50;0.90;;;17.80;98.20;;;;;;5040849;28;20471;-83
2023/08/08 09:36:05;;;;;;;1.50;0.90;;;17.90;98.20;;;;;;5025964;28;20479;-84
2023/08/08 09:38:34;;;;;;;1.50;0.90;;;18.10;98.20;;;;;;5036144;28;20506;-84
2023/08/08 09:41:01;;;;;;;1.50;0.90;;;18.20;98.20;;;;;;5027787;28;20745;-84
2023/08/08 09:43:30;;;;;;;1.50;0.90;;;18.40;98.20;;;;;;5036193;28;20639;-83
2023/08/08 09:45:57;;;;;;;1.50;1.00;;;18.50;98.20;;;;;;5025045;28;20481;-83
2023/08/08 09:48:30;;;;;;;1.50;0.90;;;18.70;98.20;;;;;;5037687;28;20522;-84
2023/08/08 09:50:59;;;;;;;1.50;0.90;;;18.80;98.20;;;;;;5029709;28;20529;-82
2023/08/08 09:53:29;;;;;;;1.50;0.90;;;19.00;98.20;;;;;;5033947;28;20459;-83
2023/08/08 09:55:57;;;;;;;1.50;0.90;;;19.20;98.20;;;;;;5025727;28;20921;-82
2023/08/08 09:58:25;;;;;;;1.50;0.90;;;19.30;98.20;;;;;;5033505;28;20474;-82
2023/08/08 10:00:52;;;;;;;1.50;0.90;;;19.50;98.20;;;;;;5025569;28;20494;-82
2023/08/08 10:03:20;;;;;;;1.50;0.90;;;19.50;98.20;;;;;;5035539;28;20863;-83
2023/08/08 10:05:47;;;;;;;1.50;0.90;;;19.60;98.20;;;;;;5033458;28;20988;-81
2023/08/08 10:08:16;;;;;;;1.50;0.90;;;19.70;98.20;;;;;;5009164;28;20470;-80
2023/08/08 10:10:46;;;;;;;1.50;0.90;;;19.70;98.20;;;;;;5034588;28;20970;-82
2023/08/08 10:13:21;;;;;;;1.50;0.90;;;19.60;98.20;;;;;;5008314;28;20491;-81
2023/08/08 10:15:48;;;;;;;1.53;0.90;;;19.50;98.20;;;;;;5028576;28;20462;-82
2023/08/08 10:18:16;;;;;;;1.50;0.90;;;19.50;98.20;;;;;;5034135;28;20510;-82
2023/08/08 10:20:44;;;;;;;1.50;0.90;;;19.50;98.20;;;;;;5084442;23;20565;-83
2023/08/08 10:23:11;;;;;;;1.50;0.90;;;19.40;98.20;;;;;;5022946;28;20546;-83
2023/08/08 10:25:38;;;;;;;3.77;2.13;;;19.40;98.20;;;;;;5031239;28;20946;-83
2023/08/08 10:28:06;;;;;;;1.50;0.80;;;19.30;98.20;;;;;;5021619;28;20838;-84
2023/08/08 10:30:45;;;;;;;1.50;0.90;;;19.20;98.20;;;;;;5033636;28;20469;-84
2023/08/08 10:33:19;;;;;;;1.50;0.90;;;19.10;98.20;;;;;;5022789;28;20779;-84
2023/08/08 10:35:57;;;;;;;1.50;0.90;;;19.00;98.20;;;;;;5033709;28;20460;-83
2023/08/08 10:38:24;;;;;;;1.50;0.90;;;19.00;98.20;;;;;;5002025;28;20570;-83
2023/08/08 10:40:57;;;;;;;1.50;0.90;;;18.80;98.20;;;;;;5024190;28;20981;-83
2023/08/08 10:43:28;;;;;;;1.63;1.27;;;18.70;98.20;;;;;;5031969;28;20459;-83
2023/08/08 10:46:00;;;;;;;1.53;0.90;;;18.70;98.20;;;;;;5023758;28;20486;-84
2023/08/08 10:48:27;;;;;;;1.50;0.90;;;18.70;98.20;;;;;;5029597;28;20517;-85
2023/08/08 10:50:56;;;;;;;1.50;0.90;;;18.60;98.20;;;;;;5022233;28;20482;-82
2023/08/08 10:53:26;;;;;;;1.50;0.90;;;18.70;98.20;;;;;;5030452;28;20463;-84
2023/08/08 10:56:00;;;;;;;1.50;0.90;;;18.70;98.20;;;;;;5023412;28;20459;-81
2023/08/08 10:58:37;;;;;;;1.50;0.90;;;18.70;98.20;;;;;;5032245;28;20460;-83
2023/08/08 11:01:08;;;;;;;1.50;0.93;;;18.80;98.20;;;;;;5022758;28;20478;-82
2023/08/08 11:03:38;;;;;;;1.50;0.90;;;19.00;98.20;;;;;;5034240;28;20574;-85
2023/08/08 11:06:06;;;;;;;1.50;0.90;;;19.10;98.20;;;;;;5026325;28;20498;-84
2023/08/08 11:08:34;;;;;;;1.50;1.00;;;19.20;98.20;;;;;;5033927;28;20478;-83
2023/08/08 11:11:01;;;;;;;1.50;0.90;;;19.40;98.20;;;;;;5022655;28;20545;-85
2023/08/08 11:13:28;;;;;;;1.53;0.90;;;19.60;98.20;;;;;;5031730;28;20766;-85
2023/08/08 11:15:55;;;;;;;1.50;0.90;;;19.70;98.20;;;;;;5023472;28;20461;-82
2023/08/08 11:18:25;;;;;;;1.50;0.90;;;19.80;98.20;;;;;;5032929;28;20483;-85
2023/08/08 11:20:52;;;;;;;1.50;0.90;;;19.80;98.20;;;;;;5021501;28;20533;-83
2023/08/08 11:23:20;;;;;;;1.50;1.00;;;19.70;98.20;;;;;;5030677;28;20451;-82
2023/08/08 11:25:48;;;;;;;1.50;0.90;;;19.70;98.20;;;;;;5031110;28;20455;-81
2023/08/08 11:28:15;;;;;;;1.50;0.90;;;19.70;98.20;;;;;;5034835;28;20846;-83
2023/08/08 11:30:44;;;;;;;1.50;0.90;;;19.70;98.20;;;;;;5035264;28;20951;-83
2023/08/08 11:33:13;;;;;;;1.50;0.90;;;19.70;98.20;;;;;;5024345;28;20499;-82
2023/08/08 11:35:45;;;;;;;1.50;0.90;;;19.70;98.20;;;;;;5034930;28;20455;-83
2023/08/08 11:38:12;;;;;;;1.50;0.90;;;19.70;98.20;;;;;;5005729;28;20490;-82
2023/08/08 11:40:39;;;;;;;1.50;0.90;;;19.60;98.20;;;;;;5035109;28;20464;-82
2023/08/08 11:43:07;;;;;;;1.50;0.90;;;19.50;98.20;;;;;;5022719;28;20487;-82
2023/08/08 11:45:34;;;;;;;1.50;0.90;;;19.40;98.20;;;;;;5033746;28;20806;-83
2023/08/08 11:48:02;;;;;;;1.50;0.90;;;19.30;98.20;;;;;;5021503;28;21232;-83
2023/08/08 11:50:32;;;;;;;1.50;0.90;;;19.20;98.20;;;;;;5038070;28;20467;-84
2023/08/08 11:53:00;;;;;;;1.50;0.90;;;19.10;98.20;;;;;;5026174;28;20518;-83
2023/08/08 11:55:31;;;;;;;1.50;0.90;;;19.00;98.20;;;;;;5034279;28;20450;-83
2023/08/08 11:58:00;;;;;;;1.50;0.90;;;18.90;98.20;;;;;;5024537;28;20489;-80
2023/08/08 12:00:29;;;;;;;1.50;0.90;;;18.70;98.20;;;;;;5036932;28;20552;-82
2023/08/08 12:02:57;;;;;;;1.50;0.90;;;18.60;98.20;;;;;;5025529;28;20571;-83
2023/08/08 12:05:23;;;;;;;1.50;1.00;;;18.50;98.20;;;;;;5034727;28;20897;-84
2023/08/08 12:07:52;;;;;;;1.50;0.90;;;18.40;98.20;;;;;;5020279;28;20475;-82
2023/08/08 12:10:22;;;;;;;1.50;0.90;;;18.40;98.20;;;;;;5035300;28;20490;-81
2023/08/08 12:12:55;;;;;;;1.53;1.00;;;18.30;98.20;;;;;;5024490;28;20559;-82
2023/08/08 12:15:22;;;;;;;1.50;0.90;;;18.30;98.20;;;;;;5037760;28;20780;-81
2023/08/08 12:17:49;;;;;;;1.50;0.90;;;18.20;98.20;;;;;;5025573;28;20534;-82
2023/08/08 12:20:16;;;;;;;1.50;0.90;;;18.10;98.20;;;;;;5039227;28;20462;-80
2023/08/08 12:22:43;;;;;;;1.50;0.90;;;18.00;98.20;;;;;;5025914;28;20487;-83
2023/08/08 12:25:10;;;;;;;1.50;0.90;;;18.00;98.20;;;;;;5038870;28;20539;-84
2023/08/08 12:27:38;;;;;;;1.50;0.90;;;17.80;98.20;;;;;;5026366;28;20926;-82
2023/08/08 12:30:07;;;;;;;1.50;0.90;;;17.80;98.20;;;;;;5031875;28;20528;-81
2023/08/08 12:32:34;;;;;;;1.50;0.97;;;17.60;98.20;;;;;;5021399;28;20483;-83
2023/08/08 12:35:00;;;;;;;2.17;1.50;;;17.50;98.20;;;;;;5037164;28;20475;-81
2023/08/08 12:37:27;;;;;;;1.50;0.90;;;17.40;98.20;;;;;;5026805;28;20471;-83
2023/08/08 12:39:54;;;;;;;1.50;0.90;;;17.30;98.20;;;;;;5033247;28;20463;-83
2023/08/08 12:42:39;;;;;;;1.60;1.23;;;17.30;98.20;;;;;;5030371;28;20483;-83
2023/08/08 12:45:09;;;;;;;1.50;0.90;;;17.30;98.20;;;;;;5043464;28;20563;-83
2023/08/08 12:47:37;;;;;;;1.50;0.90;;;17.30;98.20;;;;;;5021614;28;20475;-83
2023/08/08 12:50:04;;;;;;;1.50;0.90;;;17.30;98.20;;;;;;5031568;28;21039;-82
2023/08/08 12:52:31;;;;;;;1.50;0.90;;;17.40;98.20;;;;;;5014388;28;20620;-83
2023/08/08 12:54:58;;;;;;;1.50;0.97;;;17.50;98.20;;;;;;5027809;28;20669;-84